createdAt,value
2024-01-30T00:02:16.251Z,100880.38
2024-01-30T00:07:19.675Z,100880.38
2024-01-30T00:12:24.288Z,100882.38
2024-01-30T00:17:27.454Z,100880.44
2024-01-30T00:22:31.501Z,100877.88
2024-01-30T00:27:36.101Z,100882.00
2024-01-30T00:32:39.470Z,100876.56
2024-01-30T00:37:42.823Z,100871.56
2024-01-30T00:42:47.341Z,100868.31
2024-01-30T00:47:50.705Z,100863.53
2024-01-30T00:52:53.937Z,100862.06
2024-01-30T00:57:58.586Z,100859.25
2024-01-30T01:03:01.733Z,100854.25
2024-01-30T01:08:05.280Z,100856.72
2024-01-30T01:13:09.822Z,100863.09
2024-01-30T01:18:12.911Z,100856.50
2024-01-30T01:23:16.241Z,100858.22
2024-01-30T01:28:20.749Z,100854.25
2024-01-30T01:33:23.947Z,100858.28
2024-01-30T01:38:27.269Z,100846.72
2024-01-30T01:43:31.954Z,100847.06
2024-01-30T01:48:35.760Z,100846.81
2024-01-30T01:53:39.292Z,100840.59
2024-01-30T01:58:44.116Z,100836.56
2024-01-30T02:03:47.944Z,100844.72
2024-01-30T02:08:51.125Z,100841.69
2024-01-30T02:13:55.607Z,100847.00
2024-01-30T02:18:58.822Z,100845.94
2024-01-30T02:24:04.621Z,100840.44
2024-01-30T02:29:07.692Z,100837.25
2024-01-30T02:34:10.925Z,100834.81
2024-01-30T02:39:15.475Z,100836.50
2024-01-30T02:44:20.299Z,100834.97
2024-01-30T02:49:23.634Z,100833.59
2024-01-30T02:54:28.275Z,100829.81
2024-01-30T02:59:34.281Z,100828.78
2024-01-30T03:04:37.462Z,100835.13
2024-01-30T03:09:43.433Z,100824.19
2024-01-30T03:14:46.545Z,100831.06
2024-01-30T03:19:49.776Z,100825.19
2024-01-30T03:24:54.322Z,100831.66
2024-01-30T03:29:57.544Z,100832.28
2024-01-30T03:35:00.893Z,100833.03
2024-01-30T03:40:06.511Z,100830.16
2024-01-30T03:45:10.592Z,100835.63
2024-01-30T03:50:13.856Z,100827.88
2024-01-30T03:55:18.433Z,100827.19
2024-01-30T04:00:21.641Z,100818.25
2024-01-30T04:05:24.729Z,100815.50
2024-01-30T04:10:29.653Z,100823.09
2024-01-30T04:15:34.086Z,100816.50
2024-01-30T04:20:37.214Z,100810.69
2024-01-30T04:25:41.643Z,100815.50
2024-01-30T04:30:44.706Z,100816.69
2024-01-30T04:35:47.777Z,100817.38
2024-01-30T04:40:52.245Z,100821.09
2024-01-30T04:45:55.332Z,100813.28
2024-01-30T04:50:58.454Z,100817.56
2024-01-30T04:56:02.861Z,100821.22
2024-01-30T05:01:06.225Z,100824.34
2024-01-30T05:06:09.631Z,100813.66
2024-01-30T05:11:14.183Z,100820.19
2024-01-30T05:16:17.302Z,100828.94
2024-01-30T05:21:20.436Z,100822.78
2024-01-30T05:26:24.875Z,100828.06
2024-01-30T05:31:28.369Z,100827.19
2024-01-30T05:36:31.696Z,100832.69
2024-01-30T05:41:36.140Z,100829.75
2024-01-30T05:46:39.374Z,100843.22
2024-01-30T05:51:42.603Z,100849.59
2024-01-30T05:56:47.180Z,100854.06
2024-01-30T06:01:51.041Z,100849.34
2024-01-30T06:06:54.584Z,100846.22
2024-01-30T06:11:59.072Z,100847.44
2024-01-30T06:17:02.163Z,100838.66
2024-01-30T06:22:05.766Z,100838.38
2024-01-30T06:27:10.616Z,100841.72
2024-01-30T06:32:13.734Z,100839.97
2024-01-30T06:37:16.847Z,100840.25
2024-01-30T06:42:21.567Z,100835.75
2024-01-30T06:47:24.686Z,100832.88
2024-01-30T06:52:28.119Z,100837.69
2024-01-30T06:57:32.811Z,100837.81
2024-01-30T07:02:35.984Z,100833.41
2024-01-30T07:07:39.138Z,100839.00
2024-01-30T07:12:43.653Z,100841.88
2024-01-30T07:17:46.985Z,100841.88
2024-01-30T07:22:50.164Z,100840.44
2024-01-30T07:27:54.608Z,100839.38
2024-01-30T07:32:57.761Z,100839.13
2024-01-30T07:38:00.930Z,100844.63
2024-01-30T07:43:05.845Z,100842.56
2024-01-30T07:48:09.379Z,100846.56
2024-01-30T07:53:12.713Z,100852.06
2024-01-30T07:58:17.179Z,100844.66
2024-01-30T08:03:20.296Z,100850.56
2024-01-30T08:08:23.428Z,100852.72
2024-01-30T08:13:27.894Z,100846.28
2024-01-30T08:18:31.049Z,100851.72
2024-01-30T08:23:34.169Z,100858.75
2024-01-30T08:28:38.745Z,100862.84
2024-01-30T08:33:43.546Z,100861.88
2024-01-30T08:38:47.364Z,100864.00
2024-01-30T08:43:51.794Z,100862.38
2024-01-30T08:48:55.090Z,100850.31
2024-01-30T08:53:58.498Z,100862.66
2024-01-30T08:59:02.960Z,100863.63
2024-01-30T09:04:06.431Z,100874.75
2024-01-30T09:09:10.408Z,100867.41
2024-01-30T09:14:15.208Z,100875.06
2024-01-30T09:19:18.454Z,100866.53
2024-01-30T09:24:21.627Z,100864.16
2024-01-30T09:29:26.099Z,100865.13
2024-01-30T09:34:29.538Z,100875.63
2024-01-30T09:39:32.774Z,100862.63
2024-01-30T09:44:38.143Z,100866.63
2024-01-30T09:49:44.368Z,100890.50
2024-01-30T09:54:47.782Z,100882.44
2024-01-30T09:59:55.626Z,100877.91
2024-01-30T10:04:58.858Z,100879.59
2024-01-30T10:10:02.795Z,100880.16
2024-01-30T10:15:09.802Z,100863.09
2024-01-30T10:20:13.956Z,100847.16
2024-01-30T10:25:18.055Z,100848.69
2024-01-30T10:30:22.772Z,100845.34
2024-01-30T10:35:26.165Z,100843.16
2024-01-30T10:40:30.733Z,100835.63
2024-01-30T10:45:37.877Z,100840.75
2024-01-30T10:50:50.645Z,100842.41
2024-01-30T10:55:57.836Z,100841.09
2024-01-30T11:01:03.362Z,100834.66
2024-01-30T11:06:07.115Z,100840.56
2024-01-30T11:11:13.450Z,100843.50
2024-01-30T11:16:19.482Z,100845.38
2024-01-30T11:21:22.572Z,100846.38
2024-01-30T11:26:29.790Z,100838.97
2024-01-30T11:31:34.581Z,100838.97
2024-01-30T11:36:39.161Z,100825.59
2024-01-30T11:41:43.341Z,100828.84
2024-01-30T11:46:48.014Z,100826.69
2024-01-30T11:51:51.196Z,100823.88
2024-01-30T11:56:54.395Z,100815.91
2024-01-30T12:01:59.191Z,100804.75
2024-01-30T12:07:04.712Z,100806.84
2024-01-30T12:12:13.051Z,100805.69
2024-01-30T12:17:28.541Z,100804.81
2024-01-30T12:22:31.905Z,100798.53
2024-01-30T12:27:35.148Z,100793.44
2024-01-30T12:32:42.853Z,100791.78
2024-01-30T12:37:47.513Z,100795.81
2024-01-30T12:42:51.125Z,100788.72
2024-01-30T12:47:56.294Z,100782.28
2024-01-30T12:53:00.091Z,100777.94
2024-01-30T12:58:04.107Z,100769.03
2024-01-30T13:03:09.530Z,100767.84
2024-01-30T13:08:12.649Z,100776.13
2024-01-30T13:13:19.907Z,100774.19
2024-01-30T13:18:25.337Z,100771.19
2024-01-30T13:23:28.528Z,100771.84
2024-01-30T13:28:31.820Z,100763.16
2024-01-30T13:33:36.364Z,100755.25
2024-01-30T13:38:40.249Z,100756.56
2024-01-30T13:43:43.399Z,100770.16
2024-01-30T13:48:48.368Z,100770.38
2024-01-30T13:53:51.874Z,100780.97
2024-01-30T13:58:56.778Z,100798.16
2024-01-30T14:04:01.348Z,100787.03
2024-01-30T14:09:08.476Z,100774.97
2024-01-30T14:14:12.714Z,100789.63
2024-01-30T14:19:17.161Z,100782.28
2024-01-30T14:24:20.257Z,100789.00
2024-01-30T14:29:23.383Z,100787.25
2024-01-30T14:34:28.323Z,100790.38
2024-01-30T14:39:31.443Z,100791.06
2024-01-30T14:44:34.640Z,100794.53
2024-01-30T14:49:39.156Z,100802.69
2024-01-30T14:54:42.396Z,100813.50
2024-01-30T14:59:45.616Z,100803.09
2024-01-30T15:04:50.232Z,100804.16
2024-01-30T15:09:53.402Z,100798.31
2024-01-30T15:14:56.612Z,100811.22
2024-01-30T15:20:01.521Z,100816.16
2024-01-30T15:25:05.460Z,100815.69
2024-01-30T15:30:09.751Z,100807.44
2024-01-30T15:35:14.626Z,100813.88
2024-01-30T15:40:17.859Z,100816.75
2024-01-30T15:45:21.381Z,100824.38
2024-01-30T15:50:25.909Z,100823.00
2024-01-30T15:55:29.141Z,100831.69
2024-01-30T16:00:32.332Z,100828.22
2024-01-30T16:05:36.947Z,100840.06
2024-01-30T16:10:40.091Z,100837.09
2024-01-30T16:15:44.737Z,100831.22
2024-01-30T16:20:49.230Z,100844.03
2024-01-30T16:25:52.300Z,100844.13
2024-01-30T16:30:55.450Z,100834.22
2024-01-30T16:35:59.973Z,100852.69
2024-01-30T16:41:03.086Z,100843.34
2024-01-30T16:46:06.391Z,100833.34
2024-01-30T16:51:10.865Z,100857.13
2024-01-30T16:56:14.174Z,100860.41
2024-01-30T17:01:17.678Z,100867.34
2024-01-30T17:06:22.354Z,100875.00
2024-01-30T17:11:25.570Z,100873.66
2024-01-30T17:16:28.828Z,100888.69
2024-01-30T17:21:35.290Z,100895.00
2024-01-30T17:26:41.223Z,100907.91
2024-01-30T17:31:49.316Z,100909.31
2024-01-30T17:36:53.838Z,100917.59
2024-01-30T17:41:56.970Z,100937.31
2024-01-30T17:47:00.105Z,100945.16
2024-01-30T17:52:05.508Z,100937.25
2024-01-30T17:57:08.619Z,100947.63
2024-01-30T18:02:13.382Z,100945.91
2024-01-30T18:07:18.044Z,100957.44
2024-01-30T18:12:21.142Z,100967.59
2024-01-30T18:17:24.266Z,100966.06
2024-01-30T18:22:28.899Z,100978.91
2024-01-30T18:27:32.095Z,100972.16
2024-01-30T18:32:35.248Z,100970.94
2024-01-30T18:37:39.887Z,100973.19
2024-01-30T18:42:43.080Z,100974.75
2024-01-30T18:47:46.227Z,100968.25
2024-01-30T18:52:52.812Z,100984.88
2024-01-30T18:57:56.291Z,100996.94
2024-01-30T19:02:59.509Z,100990.16
2024-01-30T19:08:04.026Z,100992.38
2024-01-30T19:13:07.419Z,100980.75
2024-01-30T19:18:13.367Z,100997.06
2024-01-30T19:23:18.464Z,100996.34
2024-01-30T19:28:21.799Z,100996.34
2024-01-30T19:33:25.013Z,101012.00
2024-01-30T19:38:29.445Z,101018.59
2024-01-30T19:43:32.607Z,101018.13
2024-01-30T19:48:35.861Z,101015.88
2024-01-30T19:53:40.413Z,101010.84
2024-01-30T19:58:43.570Z,101015.38
2024-01-30T20:03:46.719Z,101015.19
2024-01-30T20:08:51.141Z,101013.84
2024-01-30T20:13:54.249Z,101021.47
2024-01-30T20:18:57.613Z,101024.78
2024-01-30T20:24:02.938Z,101033.66
2024-01-30T20:29:06.038Z,101033.38
2024-01-30T20:34:09.346Z,101038.69
2024-01-30T20:39:14.558Z,101043.88
2024-01-30T20:44:19.236Z,101032.06
2024-01-30T20:49:22.555Z,101047.00
2024-01-30T20:54:27.067Z,101059.03
2024-01-30T20:59:30.159Z,101064.84
2024-01-30T21:04:33.652Z,101063.78
2024-01-30T21:09:38.168Z,101063.34
2024-01-30T21:14:41.267Z,101062.31
2024-01-30T21:19:44.651Z,101064.72
2024-01-30T21:24:49.170Z,101069.97
2024-01-30T21:29:52.247Z,101087.16
2024-01-30T21:34:55.372Z,101100.34
2024-01-30T21:39:59.905Z,101107.56
2024-01-30T21:45:03.079Z,101101.41
2024-01-30T21:50:07.402Z,101095.75
2024-01-30T21:55:11.901Z,101095.91
2024-01-30T22:00:16.924Z,101105.94
2024-01-30T22:05:20.609Z,101094.38
2024-01-30T22:10:25.104Z,101102.53
2024-01-30T22:15:30.092Z,101108.00
2024-01-30T22:20:33.721Z,101109.75
2024-01-30T22:25:38.269Z,101112.09
2024-01-30T22:30:41.380Z,101116.72
2024-01-30T22:35:44.508Z,101111.22
2024-01-30T22:40:49.116Z,101116.53
2024-01-30T22:45:52.269Z,101110.25
2024-01-30T22:50:55.398Z,101111.13
2024-01-30T22:55:59.844Z,101114.63
2024-01-30T23:01:03.002Z,101124.53
2024-01-30T23:06:06.591Z,101132.53
2024-01-30T23:11:14.132Z,101138.53
2024-01-30T23:16:17.310Z,101142.00
2024-01-30T23:21:20.796Z,101152.88
2024-01-30T23:26:25.378Z,101156.44
2024-01-30T23:31:28.868Z,101146.59
2024-01-30T23:36:33.119Z,101156.34
2024-01-30T23:41:37.865Z,101157.81
2024-01-30T23:46:41.309Z,101166.00
2024-01-30T23:51:44.431Z,101163.09
2024-01-30T23:56:48.911Z,101160.28
